Time;durP1;ratioP1;P1;durP2;ratioP2;P2;SDS_P1;SDS_P2;PMS_P1;PMS_P2;Temp;Humidity;BMP_temperature;BMP_pressure;BME280_temperature;BME280_humidity;BME280_pressure;Samples;Min_cycle;Max_cycle;Signal;HPM_P1;HPM_P2
2023/12/13 00:01:39;;;;;;;;;;;;;;;6.75;100.00;99285.84;4993874;28;20012;-81
2023/12/13 00:04:04;;;;;;;;;;;;;;;6.75;100.00;99273.25;4995534;28;19926;-80
2023/12/13 00:06:29;;;;;;;;;;;;;;;6.71;100.00;99274.72;4995799;28;19929;-80
2023/12/13 00:08:54;;;;;;;;;;;;;;;6.73;100.00;99272.66;4996756;28;19918;-81
2023/12/13 00:11:20;;;;;;;;;;;;;;;6.70;100.00;99273.09;5014967;28;19925;-81
2023/12/13 00:13:45;;;;;;;;;;;;;;;6.67;100.00;99270.84;5003137;28;19971;-81
2023/12/13 00:16:10;;;;;;;;;;;;;;;6.71;100.00;99268.56;4994537;28;19973;-81
2023/12/13 00:18:42;;;;;;;;;;;;;;;6.65;100.00;99278.25;4974237;28;19930;-81
2023/12/13 00:21:08;;;;;;;;;;;;;;;6.63;100.00;99274.97;4993566;28;19918;-81
2023/12/13 00:23:34;;;;;;;;;;;;;;;6.64;100.00;99274.75;4991739;28;21954;-81
2023/12/13 00:25:59;;;;;;;;;;;;;;;6.64;100.00;99276.59;4993068;28;19921;-81
2023/12/13 00:28:24;;;;;;;;;;;;;;;6.57;100.00;99273.13;4992674;28;20381;-81
2023/12/13 00:30:49;;;;;;;;;;;;;;;6.54;100.00;99271.69;4997269;28;20334;-81
2023/12/13 00:33:14;;;;;;;;;;;;;;;6.53;100.00;99272.72;4995850;28;19917;-81
2023/12/13 00:35:42;;;;;;;;;;;;;;;6.57;100.00;99273.13;4994991;28;19953;-81
2023/12/13 00:38:09;;;;;;;;;;;;;;;6.60;100.00;99267.34;4993623;28;19980;-81
2023/12/13 00:40:34;;;;;;;;;;;;;;;6.61;100.00;99285.88;4992674;28;19918;-81
2023/12/13 00:42:59;;;;;;;;;;;;;;;6.57;100.00;99273.94;4992642;28;19928;-81
2023/12/13 00:45:25;;;;;;;;;;;;;;;6.61;100.00;99279.69;4992472;28;20004;-81
2023/12/13 00:47:50;;;;;;;;;;;;;;;6.60;100.00;99280.72;4992153;28;20579;-81
2023/12/13 00:50:15;;;;;;;;;;;;;;;6.57;100.00;99275.78;4994301;28;20546;-81
2023/12/13 00:52:41;;;;;;;;;;;;;;;6.61;100.00;99277.84;5000116;28;20568;-81
2023/12/13 00:55:07;;;;;;;;;;;;;;;6.62;100.00;99271.44;4988996;28;19922;-80
2023/12/13 00:57:33;;;;;;;;;;;;;;;6.64;100.00;99271.25;4993870;28;20374;-80
2023/12/13 00:59:58;;;;;;;;;;;;;;;6.62;100.00;99267.97;4995758;28;19937;-81
2023/12/13 01:02:24;;;;;;;;;;;;;;;6.60;100.00;99270.03;4993288;28;20419;-81
2023/12/13 01:04:49;;;;;;;;;;;;;;;6.61;100.00;99269.00;4987643;28;19952;-80
2023/12/13 01:07:14;;;;;;;;;;;;;;;6.62;100.00;99279.47;4993471;28;20012;-81
2023/12/13 01:09:39;;;;;;;;;;;;;;;6.65;100.00;99272.91;4993080;28;20242;-81
2023/12/13 01:12:06;;;;;;;;;;;;;;;6.68;100.00;99272.47;4992817;28;20333;-80
2023/12/13 01:14:32;;;;;;;;;;;;;;;6.70;100.00;99277.59;4992381;28;19929;-81
2023/12/13 01:16:57;;;;;;;;;;;;;;;6.68;100.00;99270.63;4990724;28;19922;-81
2023/12/13 01:19:24;;;;;;;;;;;;;;;6.70;100.00;99281.13;4991572;28;19932;-81
2023/12/13 01:21:49;;;;;;;;;;;;;;;6.70;100.00;99275.78;4991582;28;19922;-81
2023/12/13 01:24:14;;;;;;;;;;;;;;;6.73;100.00;99277.19;4991490;28;19924;-81
2023/12/13 01:26:42;;;;;;;;;;;;;;;6.77;100.00;99276.56;4990318;28;19921;-81
2023/12/13 01:29:07;;;;;;;;;;;;;;;6.75;100.00;99275.94;4991416;28;20027;-81
2023/12/13 01:31:34;;;;;;;;;;;;;;;6.76;100.00;99271.44;4988282;28;20381;-81
2023/12/13 01:34:00;;;;;;;;;;;;;;;6.75;100.00;99275.13;4987467;28;19964;-81
2023/12/13 01:36:25;;;;;;;;;;;;;;;6.74;100.00;99282.31;4992121;28;20009;-81
2023/12/13 01:38:50;;;;;;;;;;;;;;;6.75;100.00;99281.28;4992184;28;20265;-81
2023/12/13 01:41:15;;;;;;;;;;;;;;;6.74;100.00;99287.66;4989627;28;20439;-80
2023/12/13 01:43:41;;;;;;;;;;;;;;;6.72;100.00;99289.72;4992441;28;19918;-81
2023/12/13 01:46:06;;;;;;;;;;;;;;;6.75;100.00;99289.31;4991917;28;19926;-81
2023/12/13 01:48:31;;;;;;;;;;;;;;;6.79;100.00;99289.72;4990145;28;20012;-81
2023/12/13 01:50:56;;;;;;;;;;;;;;;6.76;100.00;99295.50;4973667;28;19918;-81
2023/12/13 01:53:23;;;;;;;;;;;;;;;6.72;100.00;99289.72;4992278;28;19928;-81
2023/12/13 01:55:48;;;;;;;;;;;;;;;6.68;100.00;99288.53;4970350;28;19921;-81
2023/12/13 01:58:15;;;;;;;;;;;;;;;6.75;100.00;99292.00;4975475;28;19973;-81
2023/12/13 02:00:40;;;;;;;;;;;;;;;6.75;100.00;99289.31;4974334;28;20022;-81
2023/12/13 02:03:05;;;;;;;;;;;;;;;6.67;100.00;99285.03;4991076;28;20014;-81
2023/12/13 02:05:30;;;;;;;;;;;;;;;6.62;100.00;99294.72;4973550;28;19972;-81
2023/12/13 02:07:55;;;;;;;;;;;;;;;6.63;100.00;99297.16;4989903;28;19965;-81
2023/12/13 02:10:21;;;;;;;;;;;;;;;6.64;100.00;99290.78;4972349;28;19929;-81
2023/12/13 02:12:46;;;;;;;;;;;;;;;6.62;100.00;99294.72;4991884;28;19922;-80
2023/12/13 02:15:11;;;;;;;;;;;;;;;6.55;100.00;99286.69;4973661;28;20270;-81
2023/12/13 02:17:36;;;;;;;;;;;;;;;6.51;100.00;99294.34;4986216;28;19922;-81
2023/12/13 02:20:04;;;;;;;;;;;;;;;6.47;100.00;99277.06;4991496;28;19929;-81
2023/12/13 02:22:32;;;;;;;;;;;;;;;6.44;100.00;99288.16;4991265;28;19933;-81
2023/12/13 02:24:57;;;;;;;;;;;;;;;6.44;100.00;99290.84;4990347;28;20293;-81
2023/12/13 02:27:28;;;;;;;;;;;;;;;6.35;100.00;99279.53;4995232;28;20295;-81
2023/12/13 02:29:53;;;;;;;;;;;;;;;6.40;100.00;99284.25;4993566;28;19957;-80
2023/12/13 02:32:19;;;;;;;;;;;;;;;6.43;100.00;99281.16;4994029;28;19991;-81
2023/12/13 02:34:44;;;;;;;;;;;;;;;6.41;100.00;99274.41;4994107;28;19957;-80
2023/12/13 02:37:09;;;;;;;;;;;;;;;6.40;100.00;99275.44;4995051;28;19921;-81
2023/12/13 02:39:34;;;;;;;;;;;;;;;6.40;100.00;99276.25;4993719;28;19952;-80
2023/12/13 02:41:59;;;;;;;;;;;;;;;6.36;100.00;99275.00;4995669;28;19969;-81
2023/12/13 02:44:25;;;;;;;;;;;;;;;6.36;100.00;99275.00;5132410;22;19929;-81
2023/12/13 02:46:50;;;;;;;;;;;;;;;6.32;100.00;99273.81;4977461;28;19929;-81
2023/12/13 02:49:15;;;;;;;;;;;;;;;6.36;100.00;99272.34;4993642;28;19922;-80
2023/12/13 02:51:43;;;;;;;;;;;;;;;6.33;100.00;99270.91;4993275;28;19973;-80
2023/12/13 02:54:08;;;;;;;;;;;;;;;6.30;100.00;99274.00;4993898;28;20031;-81
2023/12/13 02:56:33;;;;;;;;;;;;;;;6.30;100.00;99267.84;4994741;28;20552;-81
2023/12/13 02:58:58;;;;;;;;;;;;;;;6.26;100.00;99264.75;4995950;28;20362;-81
2023/12/13 03:01:24;;;;;;;;;;;;;;;6.25;100.00;99260.44;4996826;28;20389;-81
2023/12/13 03:03:49;;;;;;;;;;;;;;;6.25;100.00;99262.28;4992449;28;20412;-81
2023/12/13 03:06:14;;;;;;;;;;;;;;;6.22;100.00;99264.34;4989480;28;19921;-80
2023/12/13 03:08:43;;;;;;;;;;;;;;;6.21;100.00;99257.34;4996008;28;20007;-80
2023/12/13 03:11:09;;;;;;;;;;;;;;;6.20;100.00;99255.72;4997216;28;20278;-80
2023/12/13 03:13:34;;;;;;;;;;;;;;;6.13;100.00;99257.59;4997101;28;19922;-80
2023/12/13 03:15:59;;;;;;;;;;;;;;;6.16;100.00;99254.50;4997158;28;19936;-80
2023/12/13 03:18:25;;;;;;;;;;;;;;;6.16;100.00;99254.50;4995559;28;19922;-80
2023/12/13 03:20:50;;;;;;;;;;;;;;;6.07;100.00;99248.56;4997293;28;19988;-82
2023/12/13 03:23:15;;;;;;;;;;;;;;;6.11;100.00;99251.63;4994376;28;19938;-81
2023/12/13 03:25:40;;;;;;;;;;;;;;;6.18;100.00;99252.41;4994584;28;20013;-82
2023/12/13 03:28:06;;;;;;;;;;;;;;;6.22;100.00;99252.84;4994112;28;19960;-82
2023/12/13 03:30:31;;;;;;;;;;;;;;;6.14;100.00;99251.22;4994312;28;19985;-81
2023/12/13 03:32:56;;;;;;;;;;;;;;;6.15;100.00;99247.50;4994894;28;19918;-80
2023/12/13 03:35:21;;;;;;;;;;;;;;;6.24;100.00;99239.25;4993280;28;19936;-81
2023/12/13 03:37:48;;;;;;;;;;;;;;;6.21;100.00;99249.34;4992615;28;20345;-80
2023/12/13 03:40:14;;;;;;;;;;;;;;;6.20;100.00;99249.56;4993185;28;19960;-81
2023/12/13 03:42:39;;;;;;;;;;;;;;;6.24;100.00;99252.63;4993986;28;20339;-82
2023/12/13 03:45:04;;;;;;;;;;;;;;;6.32;100.00;99247.88;4995957;28;19925;-82
2023/12/13 03:47:29;;;;;;;;;;;;;;;6.31;100.00;99248.09;4999195;28;19926;-82
2023/12/13 03:49:55;;;;;;;;;;;;;;;6.33;100.00;99254.06;4995205;28;19925;-83
2023/12/13 03:52:20;;;;;;;;;;;;;;;6.35;100.00;99246.66;4993234;28;19941;-81
2023/12/13 03:54:48;;;;;;;;;;;;;;;6.34;100.00;99245.00;4993179;28;19929;-81
2023/12/13 03:57:13;;;;;;;;;;;;;;;6.34;100.00;99245.00;4993632;28;19932;-81
2023/12/13 03:59:39;;;;;;;;;;;;;;;6.32;100.00;99241.72;4994235;28;20016;-81
2023/12/13 04:02:04;;;;;;;;;;;;;;;6.27;100.00;99239.66;4995624;28;19964;-81
2023/12/13 04:04:29;;;;;;;;;;;;;;;6.27;100.00;99242.34;4997048;28;19972;-81
2023/12/13 04:06:54;;;;;;;;;;;;;;;6.27;100.00;99245.00;4999098;28;19926;-81
2023/12/13 04:09:20;;;;;;;;;;;;;;;6.26;100.00;99248.72;4994032;28;19930;-82
2023/12/13 04:11:45;;;;;;;;;;;;;;;6.25;100.00;99240.91;4996114;28;19977;-81
2023/12/13 04:14:10;;;;;;;;;;;;;;;6.26;100.00;99242.56;4995334;28;19922;-81
2023/12/13 04:16:35;;;;;;;;;;;;;;;6.26;100.00;99247.91;4992036;28;19934;-82
2023/12/13 04:19:06;;;;;;;;;;;;;;;6.27;100.00;99250.34;5000712;22;19929;-81
2023/12/13 04:21:32;;;;;;;;;;;;;;;6.25;100.00;99246.25;4993877;28;19929;-81
2023/12/13 04:24:06;;;;;;;;;;;;;;;6.26;100.00;99247.91;4992091;28;19929;-81
2023/12/13 04:26:40;;;;;;;;;;;;;;;6.23;100.00;99243.81;4992575;28;19964;-81
2023/12/13 04:29:21;;;;;;;;;;;;;;;6.22;100.00;99242.97;4993787;28;19933;-82
2023/12/13 04:31:46;;;;;;;;;;;;;;;6.22;100.00;99242.16;4987220;28;19933;-81
2023/12/13 04:34:11;;;;;;;;;;;;;;;6.19;100.00;99238.03;4991371;28;19948;-81
2023/12/13 04:37:05;;;;;;;;;;;;;;;6.16;100.00;99238.47;4997387;28;19923;-80
2023/12/13 04:39:30;;;;;;;;;;;;;;;6.17;100.00;99234.78;5007149;22;20024;-81
2023/12/13 04:41:55;;;;;;;;;;;;;;;6.18;100.00;99231.03;5004551;28;19969;-81
2023/12/13 04:44:20;;;;;;;;;;;;;;;6.16;100.00;99233.13;5140964;22;19925;-81
2023/12/13 04:46:46;;;;;;;;;;;;;;;6.17;100.00;99234.78;5004937;28;19976;-81
2023/12/13 04:49:11;;;;;;;;;;;;;;;6.20;100.00;99241.53;4996352;28;19922;-81
2023/12/13 04:51:36;;;;;;;;;;;;;;;6.20;100.00;99239.69;5003102;28;19917;-81
2023/12/13 04:54:01;;;;;;;;;;;;;;;6.25;100.00;99243.59;5006623;28;19936;-81
2023/12/13 04:56:27;;;;;;;;;;;;;;;6.24;100.00;99241.94;5001734;28;19918;-81
2023/12/13 04:58:52;;;;;;;;;;;;;;;6.24;100.00;99242.78;5006253;28;19929;-81
2023/12/13 05:01:17;;;;;;;;;;;;;;;6.28;100.00;99238.63;4998530;28;19918;-81
2023/12/13 05:03:43;;;;;;;;;;;;;;;6.31;100.00;99240.88;5001795;28;20224;-82
2023/12/13 05:06:11;;;;;;;;;;;;;;;6.34;100.00;99245.00;5003559;28;20341;-81
2023/12/13 05:08:36;;;;;;;;;;;;;;;6.31;100.00;99238.22;5007302;28;19918;-82
2023/12/13 05:11:01;;;;;;;;;;;;;;;6.33;100.00;99238.84;5005444;28;20052;-82
2023/12/13 05:13:27;;;;;;;;;;;;;;;6.32;100.00;99236.38;5002603;28;19929;-78
2023/12/13 05:15:55;;;;;;;;;;;;;;;6.27;100.00;99226.28;5006564;28;19928;-79
2023/12/13 05:18:20;;;;;;;;;;;;;;;6.24;100.00;99225.91;5001066;28;19980;-79
2023/12/13 05:20:48;;;;;;;;;;;;;;;6.24;100.00;99224.06;4996267;28;20385;-78
2023/12/13 05:23:13;;;;;;;;;;;;;;;6.24;100.00;99228.56;5000049;28;19929;-79
2023/12/13 05:25:40;;;;;;;;;;;;;;;6.17;100.00;99221.41;5003954;28;19918;-79
2023/12/13 05:28:09;;;;;;;;;;;;;;;6.25;100.00;99224.88;5004364;28;20484;-80
2023/12/13 05:30:34;;;;;;;;;;;;;;;6.28;100.00;99219.13;5019095;23;20404;-80
2023/12/13 05:32:59;;;;;;;;;;;;;;;6.31;100.00;99218.72;5000659;28;20448;-80
2023/12/13 05:35:25;;;;;;;;;;;;;;;6.26;100.00;99214.00;5006398;28;20350;-80
2023/12/13 05:37:50;;;;;;;;;;;;;;;6.25;100.00;99219.53;5002832;28;19969;-79
2023/12/13 05:40:15;;;;;;;;;;;;;;;6.24;100.00;99224.06;4995537;28;20021;-79
2023/12/13 05:42:40;;;;;;;;;;;;;;;6.21;100.00;99225.28;5005996;28;19921;-80
2023/12/13 05:45:06;;;;;;;;;;;;;;;6.34;100.00;99226.31;5016208;22;21155;-80
2023/12/13 05:47:31;;;;;;;;;;;;;;;6.40;100.00;99228.13;5002359;28;20317;-79
2023/12/13 05:49:57;;;;;;;;;;;;;;;6.41;100.00;99229.78;5003072;28;20369;-79
2023/12/13 05:52:22;;;;;;;;;;;;;;;6.35;100.00;99236.78;5005865;28;20004;-80
2023/12/13 05:54:47;;;;;;;;;;;;;;;6.33;100.00;99230.00;4995809;28;20393;-80
2023/12/13 05:57:12;;;;;;;;;;;;;;;6.32;100.00;99236.38;5006492;28;19991;-80
2023/12/13 05:59:38;;;;;;;;;;;;;;;6.33;100.00;99232.69;5005037;28;19957;-80
2023/12/13 06:02:03;;;;;;;;;;;;;;;6.33;100.00;99236.16;5010295;28;19926;-80
2023/12/13 06:04:28;;;;;;;;;;;;;;;6.41;100.00;99237.78;5004536;28;20337;-80
2023/12/13 06:07:00;;;;;;;;;;;;;;;6.41;100.00;99228.97;4999669;28;19926;-79
2023/12/13 06:09:25;;;;;;;;;;;;;;;6.47;100.00;99239.63;5010073;28;19925;-79
2023/12/13 06:11:51;;;;;;;;;;;;;;;6.43;100.00;99235.72;5004666;28;19929;-79
2023/12/13 06:14:16;;;;;;;;;;;;;;;6.41;100.00;99234.31;4999905;28;19925;-80
2023/12/13 06:16:41;;;;;;;;;;;;;;;6.41;100.00;99240.47;5003699;28;19928;-80
2023/12/13 06:19:10;;;;;;;;;;;;;;;6.35;100.00;99238.63;5011018;28;19922;-79
2023/12/13 06:21:36;;;;;;;;;;;;;;;6.41;100.00;99239.66;5009833;28;20338;-79
2023/12/13 06:24:02;;;;;;;;;;;;;;;6.34;100.00;99240.47;5014136;28;19975;-80
2023/12/13 06:26:28;;;;;;;;;;;;;;;6.27;100.00;99239.66;5004569;28;19921;-80
2023/12/13 06:28:55;;;;;;;;;;;;;;;6.32;100.00;99241.72;5008787;28;20439;-80
2023/12/13 06:31:20;;;;;;;;;;;;;;;6.28;100.00;99240.50;5005994;28;19933;-80
2023/12/13 06:33:45;;;;;;;;;;;;;;;6.27;100.00;99238.84;4986388;28;19925;-80
2023/12/13 06:36:10;;;;;;;;;;;;;;;6.30;100.00;99238.44;5001024;28;19945;-80
2023/12/13 06:38:36;;;;;;;;;;;;;;;6.31;100.00;99240.88;5010426;28;19995;-80
2023/12/13 06:41:01;;;;;;;;;;;;;;;6.31;100.00;99240.09;5006794;28;19921;-80
2023/12/13 06:43:26;;;;;;;;;;;;;;;6.37;100.00;99244.56;5011251;28;20012;-80
2023/12/13 06:45:54;;;;;;;;;;;;;;;6.36;100.00;99238.41;5007337;28;19937;-80
2023/12/13 06:48:20;;;;;;;;;;;;;;;6.30;100.00;99241.91;5015279;28;19988;-80
2023/12/13 06:50:45;;;;;;;;;;;;;;;6.36;100.00;99243.75;5000250;28;19918;-79
2023/12/13 06:53:10;;;;;;;;;;;;;;;6.33;100.00;99248.72;5015256;28;19929;-80
2023/12/13 06:55:35;;;;;;;;;;;;;;;6.36;100.00;99248.28;5004542;28;19965;-80
2023/12/13 06:58:04;;;;;;;;;;;;;;;6.40;100.00;99254.84;5003956;28;19918;-81
2023/12/13 07:00:29;;;;;;;;;;;;;;;6.36;100.00;99248.28;5009496;28;19932;-80
2023/12/13 07:02:54;;;;;;;;;;;;;;;6.38;100.00;99251.56;5005507;28;20290;-80
2023/12/13 07:05:20;;;;;;;;;;;;;;;6.43;100.00;99253.63;5010657;28;20279;-81
2023/12/13 07:07:46;;;;;;;;;;;;;;;6.49;100.00;99253.63;5012610;28;20313;-80
2023/12/13 07:10:12;;;;;;;;;;;;;;;6.52;100.00;99252.38;5005963;28;19921;-80
2023/12/13 07:12:37;;;;;;;;;;;;;;;6.49;100.00;99258.97;5005446;28;19937;-80
2023/12/13 07:15:03;;;;;;;;;;;;;;;6.54;100.00;99252.97;5011770;28;20338;-79
2023/12/13 07:17:29;;;;;;;;;;;;;;;6.59;100.00;99260.34;4998093;28;19929;-80
2023/12/13 07:19:54;;;;;;;;;;;;;;;6.57;100.00;99259.75;5002612;28;19925;-79
2023/12/13 07:22:19;;;;;;;;;;;;;;;6.56;100.00;99263.44;5016762;28;19965;-80
2023/12/13 07:24:45;;;;;;;;;;;;;;;6.61;100.00;99261.81;5011902;28;19928;-80
2023/12/13 07:27:11;;;;;;;;;;;;;;;6.64;100.00;99264.03;5018794;28;19948;-80
2023/12/13 07:29:36;;;;;;;;;;;;;;;6.65;100.00;99260.34;4996102;28;20333;-80
2023/12/13 07:32:01;;;;;;;;;;;;;;;6.58;100.00;99274.75;5004667;28;19922;-80
2023/12/13 07:34:29;;;;;;;;;;;;;;;6.62;100.00;99276.00;4986898;28;19921;-80
2023/12/13 07:36:55;;;;;;;;;;;;;;;6.64;100.00;99272.06;5006896;28;19922;-80
2023/12/13 07:39:20;;;;;;;;;;;;;;;6.56;100.00;99274.13;5009108;28;19922;-80
2023/12/13 07:41:48;;;;;;;;;;;;;;;6.57;100.00;99267.75;5006512;28;19949;-80
2023/12/13 07:44:13;;;;;;;;;;;;;;;6.56;100.00;99264.28;5000506;28;19932;-80
2023/12/13 07:46:38;;;;;;;;;;;;;;;6.66;100.00;99274.53;5000341;28;20044;-79
2023/12/13 07:49:03;;;;;;;;;;;;;;;6.63;100.00;99274.97;5003750;28;20068;-80
2023/12/13 07:51:29;;;;;;;;;;;;;;;6.53;100.00;99278.88;5007339;28;19921;-80
2023/12/13 07:53:57;;;;;;;;;;;;;;;6.58;100.00;99272.09;5006384;28;20387;-80
2023/12/13 07:56:22;;;;;;;;;;;;;;;6.63;100.00;99278.44;5005560;28;19944;-81
2023/12/13 07:58:47;;;;;;;;;;;;;;;6.72;100.00;99281.69;5003249;28;20016;-81
2023/12/13 08:01:14;;;;;;;;;;;;;;;6.81;100.00;99277.78;5006348;28;19965;-80
2023/12/13 08:03:48;;;;;;;;;;;;;;;6.81;100.00;99282.28;5001462;28;19924;-81
2023/12/13 08:06:14;;;;;;;;;;;;;;;6.81;100.00;99285.81;4981174;28;19921;-80
2023/12/13 08:08:39;;;;;;;;;;;;;;;6.83;100.00;99288.25;4999094;28;19930;-81
2023/12/13 08:11:04;;;;;;;;;;;;;;;6.91;100.00;99281.84;5002936;28;20024;-81
2023/12/13 08:13:30;;;;;;;;;;;;;;;6.89;100.00;99283.91;5007187;28;19959;-81
2023/12/13 08:15:55;;;;;;;;;;;;;;;6.93;100.00;99285.97;4996241;28;19929;-81
2023/12/13 08:18:20;;;;;;;;;;;;;;;6.88;100.00;99290.31;5002613;28;19921;-81
2023/12/13 08:20:45;;;;;;;;;;;;;;;6.86;100.00;99292.38;5004674;28;19922;-81
2023/12/13 08:23:10;;;;;;;;;;;;;;;6.68;100.00;99285.84;5013906;28;19921;-81
2023/12/13 08:25:36;;;;;;;;;;;;;;;6.59;100.00;99285.25;5014640;28;19925;-82
2023/12/13 08:28:02;;;;;;;;;;;;;;;6.66;100.00;99286.03;4997872;28;19948;-81
2023/12/13 08:30:27;;;;;;;;;;;;;;;6.70;100.00;99282.97;5003585;28;19932;-81
2023/12/13 08:32:53;;;;;;;;;;;;;;;6.75;100.00;99285.84;5003648;28;19930;-81
2023/12/13 08:35:18;;;;;;;;;;;;;;;6.76;100.00;99285.59;4997454;28;19930;-81
2023/12/13 08:37:43;;;;;;;;;;;;;;;6.82;100.00;99295.47;5006247;28;19921;-81
2023/12/13 08:40:11;;;;;;;;;;;;;;;6.93;100.00;99291.31;5003169;28;19921;-81
2023/12/13 08:42:37;;;;;;;;;;;;;;;6.97;100.00;99297.06;5005463;28;19925;-81
2023/12/13 08:45:03;;;;;;;;;;;;;;;6.90;100.00;99297.09;4998941;28;20055;-81
2023/12/13 08:47:28;;;;;;;;;;;;;;;6.98;100.00;99293.34;4999484;28;20012;-81
2023/12/13 08:49:54;;;;;;;;;;;;;;;7.06;100.00;99301.13;4999630;28;19929;-81
2023/12/13 08:52:20;;;;;;;;;;;;;;;7.07;100.00;99301.97;4995197;28;19922;-81
2023/12/13 08:54:45;;;;;;;;;;;;;;;7.15;100.00;99295.56;5004782;28;19928;-81
2023/12/13 08:57:10;;;;;;;;;;;;;;;7.24;100.00;99295.09;4998393;28;19925;-81
2023/12/13 08:59:35;;;;;;;;;;;;;;;7.32;100.00;99304.72;5011543;28;19921;-81
2023/12/13 09:02:01;;;;;;;;;;;;;;;7.33;100.00;99309.06;5011485;28;19922;-81
2023/12/13 09:04:27;;;;;;;;;;;;;;;7.31;100.00;99300.41;5006650;28;19979;-80
2023/12/13 09:06:52;;;;;;;;;;;;;;;7.33;100.00;99305.53;5001338;28;19944;-80
2023/12/13 09:09:17;;;;;;;;;;;;;;;7.35;100.00;99306.97;5008881;28;19922;-81
2023/12/13 09:11:42;;;;;;;;;;;;;;;7.42;100.00;99306.94;4998038;28;19922;-80
2023/12/13 09:14:09;;;;;;;;;;;;;;;7.44;100.00;99305.69;5000060;28;19921;-80
2023/12/13 09:16:35;;;;;;;;;;;;;;;7.54;100.00;99302.53;5019303;28;19925;-80
2023/12/13 09:19:00;;;;;;;;;;;;;;;7.67;100.00;99314.22;5003056;28;20393;-81
2023/12/13 09:21:25;;;;;;;;;;;;;;;7.82;100.00;99313.91;4994543;28;19937;-81
2023/12/13 09:24:09;;;;;;;;;;;;;;;7.97;100.00;99325.13;5004554;28;20024;-80
2023/12/13 09:26:40;;;;;;;;;;;;;;;8.06;100.00;99320.31;4998397;28;19921;-81
2023/12/13 09:29:07;;;;;;;;;;;;;;;8.06;100.00;99327.56;4981454;28;19921;-80
2023/12/13 09:31:33;;;;;;;;;;;;;;;8.02;100.00;99319.94;5000569;28;20081;-81
2023/12/13 09:34:02;;;;;;;;;;;;;;;7.90;100.00;99321.69;5005659;28;19925;-80
2023/12/13 09:36:27;;;;;;;;;;;;;;;7.87;100.00;99328.28;5002460;28;19931;-81
2023/12/13 09:38:52;;;;;;;;;;;;;;;7.92;100.00;99335.69;4981235;28;20289;-81
2023/12/13 09:41:20;;;;;;;;;;;;;;;7.85;100.00;99329.56;4994043;28;20596;-81
2023/12/13 09:43:49;;;;;;;;;;;;;;;7.82;100.00;99336.19;5000406;28;20096;-81
2023/12/13 09:46:17;;;;;;;;;;;;;;;7.72;100.00;99336.66;5003181;28;20322;-81
2023/12/13 09:48:45;;;;;;;;;;;;;;;7.62;100.00;99341.63;5010902;28;19921;-80
2023/12/13 09:51:11;;;;;;;;;;;;;;;7.56;100.00;99342.50;4985923;28;19968;-80
2023/12/13 09:53:36;;;;;;;;;;;;;;;7.54;100.00;99342.72;5008233;28;19921;-80
2023/12/13 09:56:01;;;;;;;;;;;;;;;7.55;100.00;99349.72;4980609;28;19922;-80
2023/12/13 09:58:26;;;;;;;;;;;;;;;7.43;100.00;99338.84;4998683;28;19926;-82
2023/12/13 10:00:57;;;;;;;;;;;;;;;7.47;100.00;99349.13;4999770;28;19967;-81
2023/12/13 10:03:23;;;;;;;;;;;;;;;7.41;100.00;99356.16;5005522;28;19921;-81
2023/12/13 10:05:48;;;;;;;;;;;;;;;7.48;100.00;99356.97;5006190;28;19922;-81
2023/12/13 10:08:19;;;;;;;;;;;;;;;7.56;100.00;99364.75;4999166;28;19922;-80
2023/12/13 10:10:47;;;;;;;;;;;;;;;7.67;100.00;99357.88;5007426;28;19961;-81
2023/12/13 10:13:12;;;;;;;;;;;;;;;7.72;100.00;99363.44;4993165;28;19922;-80
2023/12/13 10:15:37;;;;;;;;;;;;;;;7.80;100.00;99365.03;4999661;28;19921;-81
2023/12/13 10:18:03;;;;;;;;;;;;;;;7.77;100.00;99369.97;4999894;28;20012;-80
2023/12/13 10:20:30;;;;;;;;;;;;;;;7.89;100.00;99369.09;4994743;28;20282;-80
2023/12/13 10:22:58;;;;;;;;;;;;;;;7.96;100.00;99379.75;5007628;28;19971;-80
2023/12/13 10:25:23;;;;;;;;;;;;;;;8.04;100.00;99374.16;4979597;28;19922;-81
2023/12/13 10:28:02;;;;;;;;;;;;;;;8.08;100.00;99376.41;5008268;28;20266;-81
2023/12/13 10:30:27;;;;;;;;;;;;;;;8.12;100.00;99375.75;5009750;28;19941;-81
2023/12/13 10:32:53;;;;;;;;;;;;;;;8.16;100.00;99373.44;4999190;28;19922;-80
2023/12/13 10:35:19;;;;;;;;;;;;;;;8.15;100.00;99371.78;4998766;28;19972;-80
2023/12/13 10:37:44;;;;;;;;;;;;;;;8.15;100.00;99378.00;5005202;23;19929;-81
2023/12/13 10:40:11;;;;;;;;;;;;;;;8.16;100.00;99368.06;4994404;28;20267;-81
2023/12/13 10:43:13;;;;;;;;;;;;;;;8.19;100.00;99373.84;4993141;28;19922;-80
2023/12/13 10:46:02;;;;;;;;;;;;;;;8.13;100.00;99376.53;4993795;28;19936;-80
2023/12/13 10:48:35;;;;;;;;;;;;;;;8.20;100.00;99371.97;4963187;28;19926;-81
2023/12/13 10:51:00;;;;;;;;;;;;;;;8.07;100.00;99369.41;4979818;28;19922;-81
2023/12/13 10:53:25;;;;;;;;;;;;;;;8.20;100.00;99369.28;4997145;28;19922;-82
2023/12/13 10:55:51;;;;;;;;;;;;;;;8.31;100.00;99368.56;4977171;28;19925;-81
2023/12/13 10:58:16;;;;;;;;;;;;;;;8.38;100.00;99370.38;4994229;28;19926;-80
2023/12/13 11:00:42;;;;;;;;;;;;;;;8.30;100.00;99369.59;4973108;28;19922;-81
2023/12/13 11:03:11;;;;;;;;;;;;;;;8.34;100.00;99376.19;4987737;28;19926;-81
2023/12/13 11:05:37;;;;;;;;;;;;;;;8.33;100.00;99385.25;4975606;28;19933;-82
2023/12/13 11:08:12;;;;;;;;;;;;;;;8.23;100.00;99379.59;4976583;28;19921;-81
2023/12/13 11:10:37;;;;;;;;;;;;;;;8.24;100.00;99386.59;4994141;28;19988;-80
2023/12/13 11:13:03;;;;;;;;;;;;;;;8.22;100.00;99383.31;4996317;28;19926;-81
2023/12/13 11:15:28;;;;;;;;;;;;;;;8.04;100.00;99387.53;4980650;28;19926;-80
2023/12/13 11:18:08;;;;;;;;;;;;;;;8.22;100.00;99391.34;5012999;28;19921;-81
2023/12/13 11:20:49;;;;;;;;;;;;;;;8.27;100.00;99388.84;5010661;28;19921;-81
2023/12/13 11:23:14;;;;;;;;;;;;;;;8.31;100.00;99387.34;5012132;28;19953;-80
2023/12/13 11:25:39;;;;;;;;;;;;;;;8.28;100.00;99390.47;4994401;28;19925;-80
2023/12/13 11:28:05;;;;;;;;;;;;;;;8.25;100.00;99388.22;4993622;28;19926;-81
2023/12/13 11:30:31;;;;;;;;;;;;;;;8.27;100.00;99386.16;4993801;28;20393;-81
2023/12/13 11:32:56;;;;;;;;;;;;;;;8.29;100.00;99397.50;4993789;28;20020;-81
2023/12/13 11:35:21;;;;;;;;;;;;;;;8.23;100.00;99392.16;4993296;28;20017;-81
2023/12/13 11:37:50;;;;;;;;;;;;;;;8.24;100.00;99393.78;4992774;28;20148;-81
2023/12/13 11:40:16;;;;;;;;;;;;;;;8.20;100.00;99396.09;4994289;28;19932;-80
2023/12/13 11:42:44;;;;;;;;;;;;;;;8.30;100.00;99400.97;4976006;28;19930;-80
2023/12/13 11:45:09;;;;;;;;;;;;;;;8.35;100.00;99398.47;4975081;28;19922;-80
2023/12/13 11:47:34;;;;;;;;;;;;;;;8.32;100.00;99398.91;4996510;28;19977;-81
2023/12/13 11:50:00;;;;;;;;;;;;;;;8.36;100.00;99400.13;4997416;28;20283;-81
2023/12/13 11:52:25;;;;;;;;;;;;;;;8.28;100.00;99403.88;4993647;28;19922;-81
2023/12/13 11:54:50;;;;;;;;;;;;;;;8.23;100.00;99403.72;4976801;28;19922;-80
2023/12/13 11:57:16;;;;;;;;;;;;;;;8.34;100.00;99400.31;4992016;28;20290;-81
2023/12/13 11:59:42;;;;;;;;;;;;;;;8.40;100.00;99400.50;4991871;28;20318;-81
2023/12/13 12:02:08;;;;;;;;;;;;;;;8.45;100.00;99404.16;4993754;28;19992;-80
2023/12/13 12:04:33;;;;;;;;;;;;;;;8.45;100.00;99403.34;4975438;28;20332;-81
2023/12/13 12:06:58;;;;;;;;;;;;;;;8.47;100.00;99406.63;4992187;28;19981;-81
2023/12/13 12:09:24;;;;;;;;;;;;;;;8.57;100.00;99409.66;4994737;28;19937;-80
2023/12/13 12:11:53;;;;;;;;;;;;;;;8.56;100.00;99410.69;4975716;28;19936;-79
2023/12/13 12:14:18;;;;;;;;;;;;;;;8.48;100.00;99410.97;4992870;28;19952;-80
2023/12/13 12:16:44;;;;;;;;;;;;;;;8.42;100.00;99415.31;4994767;28;20016;-79
2023/12/13 12:19:09;;;;;;;;;;;;;;;8.26;100.00;99410.50;4997334;28;19932;-80
2023/12/13 12:21:37;;;;;;;;;;;;;;;8.35;100.00;99409.19;4993623;28;19922;-81
2023/12/13 12:24:02;;;;;;;;;;;;;;;8.47;100.00;99412.00;4986169;28;19921;-80
2023/12/13 12:26:28;;;;;;;;;;;;;;;8.42;100.00;99417.19;4992101;28;20012;-81
2023/12/13 12:28:53;;;;;;;;;;;;;;;8.38;100.00;99418.66;4985863;28;19922;-81
2023/12/13 12:31:18;;;;;;;;;;;;;;;8.51;100.00;99425.81;4993418;28;19928;-81
2023/12/13 12:33:51;;;;;;;;;;;;;;;8.63;100.00;99422.22;4967948;28;19930;-81
2023/12/13 12:36:18;;;;;;;;;;;;;;;8.51;100.00;99425.81;4991431;28;20413;-81
2023/12/13 12:38:45;;;;;;;;;;;;;;;8.49;100.00;99423.34;4993460;28;19921;-80
2023/12/13 12:41:10;;;;;;;;;;;;;;;8.37;100.00;99420.53;4987111;28;20025;-80
2023/12/13 12:43:37;;;;;;;;;;;;;;;8.45;100.00;99424.81;4987779;28;20048;-80